sensor_id;sensor_type;location;lat;lon;timestamp;pressure;altitude;pressure_sealevel;temperature;humidity
19777;BME280;10047;42.490;26.012;2022-12-24T00:00:22;99721.75;;;2.93;100.00
19777;BME280;10047;42.490;26.012;2022-12-24T00:02:49;99643.22;;;2.51;100.00
19777;BME280;10047;42.490;26.012;2022-12-24T00:05:14;99656.59;;;2.41;100.00
19777;BME280;10047;42.490;26.012;2022-12-24T00:07:41;99618.97;;;2.37;100.00
19777;BME280;10047;42.490;26.012;2022-12-24T00:10:07;99700.00;;;2.80;100.00
19777;BME280;10047;42.490;26.012;2022-12-24T00:12:33;99619.81;;;2.16;100.00
19777;BME280;10047;42.490;26.012;2022-12-24T00:14:58;99690.84;;;2.44;100.00
19777;BME280;10047;42.490;26.012;2022-12-24T00:17:24;99677.47;;;2.54;100.00
19777;BME280;10047;42.490;26.012;2022-12-24T00:19:49;99606.44;;;2.34;100.00
19777;BME280;10047;42.490;26.012;2022-12-24T00:22:15;99691.69;;;2.79;100.00
19777;BME280;10047;42.490;26.012;2022-12-24T00:24:40;99627.31;;;2.40;100.00
19777;BME280;10047;42.490;26.012;2022-12-24T00:27:05;99618.16;;;2.17;100.00
19777;BME280;10047;42.490;26.012;2022-12-24T00:29:31;99604.78;;;2.15;100.00
19777;BME280;10047;42.490;26.012;2022-12-24T00:31:57;99657.41;;;2.54;100.00
19777;BME280;10047;42.490;26.012;2022-12-24T00:34:23;99693.34;;;2.70;100.00
19777;BME280;10047;42.490;26.012;2022-12-24T00:36:49;99616.47;;;2.25;100.00
19777;BME280;10047;42.490;26.012;2022-12-24T00:39:14;99627.34;;;2.39;100.00
19777;BME280;10047;42.490;26.012;2022-12-24T00:41:51;99705.06;;;2.69;100.00
19777;BME280;10047;42.490;26.012;2022-12-24T00:44:17;99699.19;;;2.70;100.00
19777;BME280;10047;42.490;26.012;2022-12-24T00:46:42;99634.03;;;2.13;100.00
19777;BME280;10047;42.490;26.012;2022-12-24T00:49:08;99621.50;;;2.13;100.00
19777;BME280;10047;42.490;26.012;2022-12-24T00:51:34;99626.50;;;2.28;100.00
19777;BME280;10047;42.490;26.012;2022-12-24T00:54:00;99685.00;;;2.60;100.00
19777;BME280;10047;42.490;26.012;2022-12-24T00:56:26;99680.00;;;2.40;100.00
19777;BME280;10047;42.490;26.012;2022-12-24T00:58:51;99603.94;;;1.89;100.00
19777;BME280;10047;42.490;26.012;2022-12-24T01:01:17;99672.44;;;2.10;100.00
19777;BME280;10047;42.490;26.012;2022-12-24T01:03:43;99679.16;;;2.22;100.00
19777;BME280;10047;42.490;26.012;2022-12-24T01:06:18;99682.50;;;2.34;100.00
19777;BME280;10047;42.490;26.012;2022-12-24T01:08:44;99692.53;;;2.19;100.00
19777;BME280;10047;42.490;26.012;2022-12-24T01:11:11;99693.38;;;2.20;100.00
19777;BME280;10047;42.490;26.012;2022-12-24T01:13:37;99562.16;;;1.50;100.00
19777;BME280;10047;42.490;26.012;2022-12-24T01:16:12;99679.16;;;2.19;100.00
19777;BME280;10047;42.490;26.012;2022-12-24T01:18:38;99682.47;;;1.92;100.00
19777;BME280;10047;42.490;26.012;2022-12-24T01:21:04;99680.00;;;2.24;100.00
19777;BME280;10047;42.490;26.012;2022-12-24T01:23:30;99680.81;;;2.02;100.00
19777;BME280;10047;42.490;26.012;2022-12-24T01:26:00;99687.47;;;1.98;100.00
19777;BME280;10047;42.490;26.012;2022-12-24T01:28:25;99610.59;;;1.74;100.00
19777;BME280;10047;42.490;26.012;2022-12-24T01:30:51;99590.56;;;1.73;100.00
19777;BME280;10047;42.490;26.012;2022-12-24T01:33:16;99534.59;;;1.26;100.00
19777;BME280;10047;42.490;26.012;2022-12-24T01:35:42;99655.75;;;2.12;100.00
19777;BME280;10047;42.490;26.012;2022-12-24T01:38:09;99518.72;;;1.12;100.00
19777;BME280;10047;42.490;26.012;2022-12-24T01:40:36;99515.38;;;1.22;100.00
19777;BME280;10047;42.490;26.012;2022-12-24T01:43:22;99628.16;;;1.79;100.00
19777;BME280;10047;42.490;26.012;2022-12-24T01:51:37;99638.19;;;1.93;100.00
19777;BME280;10047;42.490;26.012;2022-12-24T01:54:17;99644.03;;;1.78;100.00
19777;BME280;10047;42.490;26.012;2022-12-24T01:56:51;99621.50;;;1.98;100.00
19777;BME280;10047;42.490;26.012;2022-12-24T01:59:19;99628.16;;;1.71;100.00
19777;BME280;10047;42.490;26.012;2022-12-24T02:01:47;99547.16;;;1.51;100.00
19777;BME280;10047;42.490;26.012;2022-12-24T02:04:36;99643.19;;;1.85;100.00
19777;BME280;10047;42.490;26.012;2022-12-24T02:07:04;99633.19;;;1.97;100.00
19777;BME280;10047;42.490;26.012;2022-12-24T02:09:32;99551.28;;;1.37;100.00
19777;BME280;10047;42.490;26.012;2022-12-24T02:11:57;99643.19;;;1.81;100.00
19777;BME280;10047;42.490;26.012;2022-12-24T02:14:23;99613.09;;;1.68;100.00
19777;BME280;10047;42.490;26.012;2022-12-24T02:17:03;99615.63;;;1.94;100.00
19777;BME280;10047;42.490;26.012;2022-12-24T02:19:59;99623.16;;;2.17;100.00
19777;BME280;10047;42.490;26.012;2022-12-24T02:31:03;99613.13;;;1.81;100.00
19777;BME280;10047;42.490;26.012;2022-12-24T02:33:44;99533.78;;;1.34;100.00
19777;BME280;10047;42.490;26.012;2022-12-24T02:36:19;99510.31;;;0.92;100.00
19777;BME280;10047;42.490;26.012;2022-12-24T02:39:07;99623.94;;;1.64;100.00
19777;BME280;10047;42.490;26.012;2022-12-24T02:41:39;99543.78;;;1.37;100.00
19777;BME280;10047;42.490;26.012;2022-12-24T02:44:26;99546.31;;;1.64;100.00
19777;BME280;10047;42.490;26.012;2022-12-24T02:46:53;99635.66;;;1.74;100.00
19777;BME280;10047;42.490;26.012;2022-12-24T02:49:20;99481.19;;;1.10;100.00
19777;BME280;10047;42.490;26.012;2022-12-24T02:51:45;99621.44;;;1.64;100.00
19777;BME280;10047;42.490;26.012;2022-12-24T02:54:12;99548.81;;;1.49;100.00
19777;BME280;10047;42.490;26.012;2022-12-24T02:57:03;99611.47;;;1.98;100.00
19777;BME280;10047;42.490;26.012;2022-12-24T03:02:23;99537.97;;;1.62;100.00
19777;BME280;10047;42.490;26.012;2022-12-24T03:07:34;99622.25;;;1.50;100.00
19777;BME280;10047;42.490;26.012;2022-12-24T03:10:13;99619.84;;;1.86;100.00
19777;BME280;10047;42.490;26.012;2022-12-24T03:12:44;99610.66;;;1.96;100.00
19777;BME280;10047;42.490;26.012;2022-12-24T03:15:14;99557.09;;;1.27;100.00
19777;BME280;10047;42.490;26.012;2022-12-24T03:17:45;99557.97;;;1.37;100.00
19777;BME280;10047;42.490;26.012;2022-12-24T03:20:14;99542.94;;;1.37;100.00
19777;BME280;10047;42.490;26.012;2022-12-24T03:22:41;99597.28;;;1.74;100.00
19777;BME280;10047;42.490;26.012;2022-12-24T03:25:16;99541.28;;;1.37;100.00
19777;BME280;10047;42.490;26.012;2022-12-24T03:27:42;99572.19;;;1.53;100.00
19777;BME280;10047;42.490;26.012;2022-12-24T03:30:13;99615.63;;;1.64;100.00
19777;BME280;10047;42.490;26.012;2022-12-24T03:32:39;99551.19;;;1.01;100.00
19777;BME280;10047;42.490;26.012;2022-12-24T03:35:05;99604.72;;;1.38;100.00
19777;BME280;10047;42.490;26.012;2022-12-24T03:37:31;99550.47;;;1.46;100.00
19777;BME280;10047;42.490;26.012;2022-12-24T03:39:56;99622.28;;;1.57;100.00
19777;BME280;10047;42.490;26.012;2022-12-24T03:42:22;99615.63;;;1.64;100.00
19777;BME280;10047;42.490;26.012;2022-12-24T03:44:48;99593.91;;;1.63;100.00
19777;BME280;10047;42.490;26.012;2022-12-24T03:47:13;99599.72;;;1.47;100.00
19777;BME280;10047;42.490;26.012;2022-12-24T03:49:39;99615.63;;;1.81;100.00
19777;BME280;10047;42.490;26.012;2022-12-24T03:52:04;99542.00;;;0.97;100.00
19777;BME280;10047;42.490;26.012;2022-12-24T03:54:34;99603.91;;;1.49;100.00
19777;BME280;10047;42.490;26.012;2022-12-24T03:57:00;99612.25;;;2.58;100.00
19777;BME280;10047;42.490;26.012;2022-12-24T03:59:25;99524.50;;;3.89;100.00
19777;BME280;10047;42.490;26.012;2022-12-24T04:01:52;99613.88;;;1.37;100.00
19777;BME280;10047;42.490;26.012;2022-12-24T04:04:17;99630.59;;;1.55;100.00
19777;BME280;10047;42.490;26.012;2022-12-24T04:06:42;99615.63;;;1.74;100.00
19777;BME280;10047;42.490;26.012;2022-12-24T04:09:08;99549.53;;;0.93;100.00
19777;BME280;10047;42.490;26.012;2022-12-24T04:11:33;99599.75;;;1.83;100.00
19777;BME280;10047;42.490;26.012;2022-12-24T04:13:59;99592.22;;;1.56;100.00
19777;BME280;10047;42.490;26.012;2022-12-24T04:16:24;99568.84;;;1.42;100.00
19777;BME280;10047;42.490;26.012;2022-12-24T04:18:49;99528.75;;;1.30;100.00
19777;BME280;10047;42.490;26.012;2022-12-24T04:21:15;99599.75;;;1.60;100.00
19777;BME280;10047;42.490;26.012;2022-12-24T04:23:41;99625.63;;;1.62;100.00
19777;BME280;10047;42.490;26.012;2022-12-24T04:26:09;99628.03;;;1.29;100.00
19777;BME280;10047;42.490;26.012;2022-12-24T04:28:36;99572.78;;;0.79;100.00
19777;BME280;10047;42.490;26.012;2022-12-24T04:31:05;99608.03;;;1.34;100.00
19777;BME280;10047;42.490;26.012;2022-12-24T04:33:31;99627.31;;;1.60;100.00
19777;BME280;10047;42.490;26.012;2022-12-24T04:35:57;99619.69;;;1.24;100.00
19777;BME280;10047;42.490;26.012;2022-12-24T04:38:23;99601.41;;;1.46;100.00
19777;BME280;10047;42.490;26.012;2022-12-24T04:41:00;99606.44;;;1.58;100.00
19777;BME280;10047;42.490;26.012;2022-12-24T04:43:26;99591.28;;;1.19;100.00
19777;BME280;10047;42.490;26.012;2022-12-24T04:45:52;99537.88;;;1.08;100.00
19777;BME280;10047;42.490;26.012;2022-12-24T04:48:17;99547.91;;;1.08;100.00
19777;BME280;10047;42.490;26.012;2022-12-24T04:50:43;99623.94;;;1.54;100.00
19777;BME280;10047;42.490;26.012;2022-12-24T04:53:08;99608.00;;;1.28;100.00
19777;BME280;10047;42.490;26.012;2022-12-24T04:55:33;99619.72;;;1.33;100.00
19777;BME280;10047;42.490;26.012;2022-12-24T04:57:59;99482.69;;;0.57;100.00
19777;BME280;10047;42.490;26.012;2022-12-24T05:00:24;99608.00;;;1.20;100.00
19777;BME280;10047;42.490;26.012;2022-12-24T05:02:50;99578.75;;;1.12;100.00
19777;BME280;10047;42.490;26.012;2022-12-24T05:05:15;99604.72;;;1.36;100.00
19777;BME280;10047;42.490;26.012;2022-12-24T05:07:40;99586.22;;;1.01;100.00
19777;BME280;10047;42.490;26.012;2022-12-24T05:10:06;99576.19;;;0.92;100.00
19777;BME280;10047;42.490;26.012;2022-12-24T05:12:32;99617.13;;;1.06;100.00
19777;BME280;10047;42.490;26.012;2022-12-24T05:14:57;99486.88;;;0.59;100.00
19777;BME280;10047;42.490;26.012;2022-12-24T05:17:23;99559.56;;;1.06;100.00
19777;BME280;10047;42.490;26.012;2022-12-24T05:19:48;99542.69;;;0.57;100.00
19777;BME280;10047;42.490;26.012;2022-12-24T05:22:14;99604.50;;;0.80;100.00
19777;BME280;10047;42.490;26.012;2022-12-24T05:25:00;99628.91;;;1.39;100.00
19777;BME280;10047;42.490;26.012;2022-12-24T05:27:44;99613.06;;;1.40;100.00
19777;BME280;10047;42.490;26.012;2022-12-24T05:30:11;99608.00;;;1.20;100.00
19777;BME280;10047;42.490;26.012;2022-12-24T05:32:36;99559.53;;;0.94;100.00
19777;BME280;10047;42.490;26.012;2022-12-24T05:35:02;99566.28;;;1.16;100.00
19777;BME280;10047;42.490;26.012;2022-12-24T05:37:27;99520.28;;;0.76;100.00
19777;BME280;10047;42.490;26.012;2022-12-24T05:39:52;99566.22;;;1.07;100.00
19777;BME280;10047;42.490;26.012;2022-12-24T05:42:18;99634.75;;;1.45;100.00
19777;BME280;10047;42.490;26.012;2022-12-24T05:44:43;99524.44;;;0.73;100.00
19777;BME280;10047;42.490;26.012;2022-12-24T05:47:10;99633.94;;;1.42;100.00
19777;BME280;10047;42.490;26.012;2022-12-24T05:49:35;99562.13;;;1.27;100.00
19777;BME280;10047;42.490;26.012;2022-12-24T05:52:00;99632.25;;;1.39;100.00
19777;BME280;10047;42.490;26.012;2022-12-24T05:54:26;99548.66;;;0.84;100.00
19777;BME280;10047;42.490;26.012;2022-12-24T05:56:51;99624.69;;;1.24;100.00
19777;BME280;10047;42.490;26.012;2022-12-24T05:59:17;99640.53;;;1.23;100.00
19777;BME280;10047;42.490;26.012;2022-12-24T06:01:42;99633.81;;;1.09;100.00
19777;BME280;10047;42.490;26.012;2022-12-24T06:04:11;99577.88;;;0.93;100.00
19777;BME280;10047;42.490;26.012;2022-12-24T06:06:36;99658.16;;;1.44;100.00
19777;BME280;10047;42.490;26.012;2022-12-24T06:09:02;99647.25;;;1.32;100.00
19777;BME280;10047;42.490;26.012;2022-12-24T06:11:28;99646.44;;;1.36;100.00
19777;BME280;10047;42.490;26.012;2022-12-24T06:13:54;99587.84;;;0.92;100.00
19777;BME280;10047;42.490;26.012;2022-12-24T06:16:21;99642.22;;;1.27;100.00
19777;BME280;10047;42.490;26.012;2022-12-24T06:18:46;99573.59;;;0.74;100.00
19777;BME280;10047;42.490;26.012;2022-12-24T06:21:12;99587.81;;;0.79;100.00
19777;BME280;10047;42.490;26.012;2022-12-24T06:23:40;99647.09;;;0.96;100.00
19777;BME280;10047;42.490;26.012;2022-12-24T06:26:07;99673.00;;;1.08;100.00
19777;BME280;10047;42.490;26.012;2022-12-24T06:28:35;99665.50;;;1.07;100.00
19777;BME280;10047;42.490;26.012;2022-12-24T06:31:01;99673.78;;;1.01;100.00
19777;BME280;10047;42.490;26.012;2022-12-24T06:33:28;99637.72;;;0.60;100.00
19777;BME280;10047;42.490;26.012;2022-12-24T06:35:53;99656.94;;;0.70;100.00
19777;BME280;10047;42.490;26.012;2022-12-24T06:38:19;99571.06;;;0.68;100.00
19777;BME280;10047;42.490;26.012;2022-12-24T06:40:45;99647.91;;;0.88;100.00
19777;BME280;10047;42.490;26.012;2022-12-24T06:43:20;99658.00;;;1.11;100.00
19777;BME280;10047;42.490;26.012;2022-12-24T06:45:46;99647.09;;;0.96;100.00
19777;BME280;10047;42.490;26.012;2022-12-24T06:48:13;99639.63;;;1.09;100.00
19777;BME280;10047;42.490;26.012;2022-12-24T06:50:39;99555.22;;;0.63;100.00
19777;BME280;10047;42.490;26.012;2022-12-24T06:53:04;99630.50;;;1.16;100.00
19777;BME280;10047;42.490;26.012;2022-12-24T06:55:30;99538.41;;;0.36;100.00
19777;BME280;10047;42.490;26.012;2022-12-24T06:57:56;99558.53;;;0.60;100.00
19777;BME280;10047;42.490;26.012;2022-12-24T07:00:21;99531.94;;;0.73;100.00
19777;BME280;10047;42.490;26.012;2022-12-24T07:02:47;99563.56;;;0.63;100.00
19777;BME280;10047;42.490;26.012;2022-12-24T07:05:13;99552.03;;;0.96;100.00
19777;BME280;10047;42.490;26.012;2022-12-24T07:07:40;99603.94;;;1.60;100.00
19777;BME280;10047;42.490;26.012;2022-12-24T07:10:09;99623.09;;;1.62;100.00
19777;BME280;10047;42.490;26.012;2022-12-24T07:12:35;99597.22;;;1.66;100.00
19777;BME280;10047;42.490;26.012;2022-12-24T07:15:00;99526.22;;;1.18;100.00
19777;BME280;10047;42.490;26.012;2022-12-24T07:17:25;99617.31;;;1.88;100.00
19777;BME280;10047;42.490;26.012;2022-12-24T07:19:51;99617.28;;;1.56;100.00
19777;BME280;10047;42.490;26.012;2022-12-24T07:22:17;99564.69;;;1.60;100.00
19777;BME280;10047;42.490;26.012;2022-12-24T07:24:42;99610.63;;;1.93;100.00
19777;BME280;10047;42.490;26.012;2022-12-24T07:27:08;99600.59;;;2.35;100.00
19777;BME280;10047;42.490;26.012;2022-12-24T07:29:34;99546.34;;;1.58;100.00
19777;BME280;10047;42.490;26.012;2022-12-24T07:31:59;99622.31;;;2.33;100.00
19777;BME280;10047;42.490;26.012;2022-12-24T07:34:25;99533.81;;;1.73;100.00
19777;BME280;10047;42.490;26.012;2022-12-24T07:36:50;99557.16;;;1.97;100.00
19777;BME280;10047;42.490;26.012;2022-12-24T07:39:20;99614.78;;;2.39;100.00
19777;BME280;10047;42.490;26.012;2022-12-24T07:41:45;99612.22;;;2.71;100.00
19777;BME280;10047;42.490;26.012;2022-12-24T07:44:13;99613.03;;;2.74;100.00
19777;BME280;10047;42.490;26.012;2022-12-24T07:46:39;99638.13;;;2.76;100.00
19777;BME280;10047;42.490;26.012;2022-12-24T07:49:05;99485.22;;;2.41;100.00
19777;BME280;10047;42.490;26.012;2022-12-24T07:51:30;99602.03;;;3.10;100.00
19777;BME280;10047;42.490;26.012;2022-12-24T07:53:56;99618.66;;;3.42;100.00
19777;BME280;10047;42.490;26.012;2022-12-24T07:56:21;99572.00;;;2.95;100.00
19777;BME280;10047;42.490;26.012;2022-12-24T07:58:49;99576.19;;;2.90;100.00
19777;BME280;10047;42.490;26.012;2022-12-24T08:01:14;99635.59;;;2.97;100.00
19777;BME280;10047;42.490;26.012;2022-12-24T08:03:40;99647.97;;;3.37;100.00
19777;BME280;10047;42.490;26.012;2022-12-24T08:06:05;99602.75;;;3.37;100.00
19777;BME280;10047;42.490;26.012;2022-12-24T08:08:31;99628.69;;;3.39;100.00
19777;BME280;10047;42.490;26.012;2022-12-24T08:11:03;99629.47;;;3.49;100.00
19777;BME280;10047;42.490;26.012;2022-12-24T08:13:29;99638.06;;;3.00;100.00
19777;BME280;10047;42.490;26.012;2022-12-24T08:15:54;99559.44;;;2.96;100.00
19777;BME280;10047;42.490;26.012;2022-12-24T08:18:20;99590.22;;;3.27;100.00
19777;BME280;10047;42.490;26.012;2022-12-24T08:20:45;99636.81;;;3.81;100.00
19777;BME280;10047;42.490;26.012;2022-12-24T08:23:11;99645.22;;;3.81;100.00
19777;BME280;10047;42.490;26.012;2022-12-24T08:25:37;99558.66;;;2.85;100.00
19777;BME280;10047;42.490;26.012;2022-12-24T08:28:05;99643.03;;;4.45;100.00
19777;BME280;10047;42.490;26.012;2022-12-24T08:30:31;99562.78;;;2.98;100.00
19777;BME280;10047;42.490;26.012;2022-12-24T08:32:57;99636.31;;;3.20;100.00
19777;BME280;10047;42.490;26.012;2022-12-24T08:35:22;99596.94;;;3.25;100.00
19777;BME280;10047;42.490;26.012;2022-12-24T08:37:48;99576.88;;;3.26;100.00
19777;BME280;10047;42.490;26.012;2022-12-24T08:40:13;99617.97;;;3.01;100.00
19777;BME280;10047;42.490;26.012;2022-12-24T08:42:39;99572.75;;;3.07;100.00
19777;BME280;10047;42.490;26.012;2022-12-24T08:45:05;99578.69;;;2.99;100.00
19777;BME280;10047;42.490;26.012;2022-12-24T08:47:30;99578.34;;;3.54;100.00
19777;BME280;10047;42.490;26.012;2022-12-24T08:49:56;99558.38;;;3.38;100.00
19777;BME280;10047;42.490;26.012;2022-12-24T08:52:21;99551.66;;;3.44;100.00
19777;BME280;10047;42.490;26.012;2022-12-24T08:54:46;99629.34;;;3.72;100.00
19777;BME280;10047;42.490;26.012;2022-12-24T08:57:12;99630.41;;;3.31;100.00
19777;BME280;10047;42.490;26.012;2022-12-24T08:59:38;99630.28;;;3.60;100.00
19777;BME280;10047;42.490;26.012;2022-12-24T09:02:04;99629.19;;;3.97;100.00
19777;BME280;10047;42.490;26.012;2022-12-24T09:04:30;99605.56;;;4.18;100.00
19777;BME280;10047;42.490;26.012;2022-12-24T09:06:55;99512.44;;;3.22;100.00
19777;BME280;10047;42.490;26.012;2022-12-24T09:09:20;99631.50;;;4.23;100.00
19777;BME280;10047;42.490;26.012;2022-12-24T09:11:46;99629.75;;;4.31;100.00
19777;BME280;10047;42.490;26.012;2022-12-24T09:14:12;99558.41;;;3.36;100.00
19777;BME280;10047;42.490;26.012;2022-12-24T09:16:38;99651.03;;;3.85;100.00
19777;BME280;10047;42.490;26.012;2022-12-24T09:19:03;99629.97;;;4.04;100.00
19777;BME280;10047;42.490;26.012;2022-12-24T09:21:29;99624.00;;;4.17;100.00
19777;BME280;10047;42.490;26.012;2022-12-24T09:23:55;99552.31;;;3.68;100.00
19777;BME280;10047;42.490;26.012;2022-12-24T09:26:23;99554.84;;;3.66;100.00
19777;BME280;10047;42.490;26.012;2022-12-24T09:28:49;99584.53;;;4.25;100.00
19777;BME280;10047;42.490;26.012;2022-12-24T09:31:15;99595.81;;;4.70;100.00
19777;BME280;10047;42.490;26.012;2022-12-24T09:33:42;99623.06;;;5.07;100.00
19777;BME280;10047;42.490;26.012;2022-12-24T09:36:09;99527.41;;;4.33;100.00
19777;BME280;10047;42.490;26.012;2022-12-24T09:38:35;99560.69;;;4.59;100.00
19777;BME280;10047;42.490;26.012;2022-12-24T09:41:13;99531.16;;;4.72;100.00
19777;BME280;10047;42.490;26.012;2022-12-24T09:43:44;99601.84;;;5.26;100.00
19777;BME280;10047;42.490;26.012;2022-12-24T09:46:32;99605.84;;;5.43;100.00
19777;BME280;10047;42.490;26.012;2022-12-24T09:49:12;99601.69;;;5.39;100.00
19777;BME280;10047;42.490;26.012;2022-12-24T09:51:43;99550.06;;;5.06;100.00
19777;BME280;10047;42.490;26.012;2022-12-24T09:56:44;99604.78;;;7.83;100.00
19777;BME280;10047;42.490;26.012;2022-12-24T09:59:13;99587.88;;;7.85;100.00
19777;BME280;10047;42.490;26.012;2022-12-24T10:01:40;99477.84;;;5.06;100.00
19777;BME280;10047;42.490;26.012;2022-12-24T10:04:13;99602.31;;;6.10;100.00
19777;BME280;10047;42.490;26.012;2022-12-24T10:22:36;99592.81;;;6.73;100.00
19777;BME280;10047;42.490;26.012;2022-12-24T10:27:54;99599.03;;;6.54;100.00
19777;BME280;10047;42.490;26.012;2022-12-24T10:30:21;99533.03;;;6.30;100.00
19777;BME280;10047;42.490;26.012;2022-12-24T10:32:50;99544.69;;;6.35;100.00
19777;BME280;10047;42.490;26.012;2022-12-24T10:37:46;99583.94;;;6.97;100.00
19777;BME280;10047;42.490;26.012;2022-12-24T10:40:42;99593.72;;;7.12;100.00
19777;BME280;10047;42.490;26.012;2022-12-24T10:43:20;99474.03;;;6.35;100.00
19777;BME280;10047;42.490;26.012;2022-12-24T10:45:57;99598.88;;;7.06;100.00
19777;BME280;10047;42.490;26.012;2022-12-24T10:48:30;99511.34;;;6.62;100.00
19777;BME280;10047;42.490;26.012;2022-12-24T10:51:01;99504.00;;;6.93;100.00
19777;BME280;10047;42.490;26.012;2022-12-24T10:56:18;99527.78;;;7.21;100.00
19777;BME280;10047;42.490;26.012;2022-12-24T10:58:45;99507.03;;;7.45;100.00
19777;BME280;10047;42.490;26.012;2022-12-24T11:01:14;99559.78;;;7.96;100.00
19777;BME280;10047;42.490;26.012;2022-12-24T11:03:40;99459.53;;;7.23;100.00
19777;BME280;10047;42.490;26.012;2022-12-24T11:08:37;99512.69;;;7.90;100.00
19777;BME280;10047;42.490;26.012;2022-12-24T11:11:06;99511.47;;;7.71;100.00
19777;BME280;10047;42.490;26.012;2022-12-24T11:13:37;99579.06;;;8.01;100.00
19777;BME280;10047;42.490;26.012;2022-12-24T11:16:25;99548.78;;;7.97;100.00
19777;BME280;10047;42.490;26.012;2022-12-24T11:18:51;99555.72;;;8.57;100.00
19777;BME280;10047;42.490;26.012;2022-12-24T11:21:38;99550.19;;;8.42;100.00
19777;BME280;10047;42.490;26.012;2022-12-24T11:26:36;99509.41;;;7.86;100.00
19777;BME280;10047;42.490;26.012;2022-12-24T11:31:46;99484.72;;;7.61;100.00
19777;BME280;10047;42.490;26.012;2022-12-24T11:37:12;99574.09;;;7.98;100.00
19777;BME280;10047;42.490;26.012;2022-12-24T11:39:44;99573.28;;;7.96;100.00
19777;BME280;10047;42.490;26.012;2022-12-24T11:42:32;99573.88;;;8.06;100.00
19777;BME280;10047;42.490;26.012;2022-12-24T11:45:01;99579.31;;;7.90;100.00
19777;BME280;10047;42.490;26.012;2022-12-24T11:47:36;99506.78;;;7.56;100.00
19777;BME280;10047;42.490;26.012;2022-12-24T11:52:56;99501.44;;;7.68;100.00
19777;BME280;10047;42.490;26.012;2022-12-24T11:55:49;99586.59;;;8.03;100.00
19777;BME280;10047;42.490;26.012;2022-12-24T12:00:45;99515.13;;;7.59;100.00
19777;BME280;10047;42.490;26.012;2022-12-24T12:03:29;99595.69;;;8.11;100.00
19777;BME280;10047;42.490;26.012;2022-12-24T12:05:55;99570.34;;;8.46;100.00
19777;BME280;10047;42.490;26.012;2022-12-24T12:08:25;99590.38;;;8.20;100.00
19777;BME280;10047;42.490;26.012;2022-12-24T12:10:52;99513.38;;;7.61;100.00
19777;BME280;10047;42.490;26.012;2022-12-24T12:13:22;99586.47;;;8.09;100.00
19777;BME280;10047;42.490;26.012;2022-12-24T12:19:16;99585.41;;;8.17;100.00
19777;BME280;10047;42.490;26.012;2022-12-24T12:21:47;99540.97;;;7.72;100.00
19777;BME280;10047;42.490;26.012;2022-12-24T12:24:24;99583.22;;;8.04;100.00
19777;BME280;10047;42.490;26.012;2022-12-24T12:27:06;99574.50;;;8.49;100.00
19777;BME280;10047;42.490;26.012;2022-12-24T12:29:35;99578.53;;;8.22;100.00
19777;BME280;10047;42.490;26.012;2022-12-24T12:32:12;99517.91;;;7.84;100.00
19777;BME280;10047;42.490;26.012;2022-12-24T12:34:43;99498.06;;;7.67;100.00
19777;BME280;10047;42.490;26.012;2022-12-24T12:37:19;99583.16;;;8.40;100.00
19777;BME280;10047;42.490;26.012;2022-12-24T12:39:48;99568.53;;;8.50;100.00
19777;BME280;10047;42.490;26.012;2022-12-24T12:42:30;99470.34;;;7.97;100.00
19777;BME280;10047;42.490;26.012;2022-12-24T12:51:01;99577.34;;;8.37;100.00
19777;BME280;10047;42.490;26.012;2022-12-24T12:53:43;99573.31;;;8.30;100.00
19777;BME280;10047;42.490;26.012;2022-12-24T12:56:25;99572.44;;;8.31;100.00
19777;BME280;10047;42.490;26.012;2022-12-24T12:59:02;99521.25;;;8.18;100.00
19777;BME280;10047;42.490;26.012;2022-12-24T13:01:41;99571.44;;;8.36;100.00
19777;BME280;10047;42.490;26.012;2022-12-24T13:11:57;99567.06;;;8.43;100.00
19777;BME280;10047;42.490;26.012;2022-12-24T13:22:28;99557.97;;;8.36;100.00
19777;BME280;10047;42.490;26.012;2022-12-24T13:24:54;99435.88;;;7.60;100.00
19777;BME280;10047;42.490;26.012;2022-12-24T13:27:28;99565.38;;;8.43;100.00
19777;BME280;10047;42.490;26.012;2022-12-24T13:30:31;99545.31;;;8.36;100.00
19777;BME280;10047;42.490;26.012;2022-12-24T13:32:57;99552.34;;;8.25;100.00
19777;BME280;10047;42.490;26.012;2022-12-24T13:37:49;99558.16;;;8.28;100.00
19777;BME280;10047;42.490;26.012;2022-12-24T13:50:54;99498.13;;;7.66;100.00
19777;BME280;10047;42.490;26.012;2022-12-24T13:58:33;99499.91;;;7.62;100.00
19777;BME280;10047;42.490;26.012;2022-12-24T14:01:11;99576.47;;;8.04;100.00
19777;BME280;10047;42.490;26.012;2022-12-24T14:03:43;99570.66;;;7.99;100.00
19777;BME280;10047;42.490;26.012;2022-12-24T14:06:26;99498.47;;;7.51;100.00
19777;BME280;10047;42.490;26.012;2022-12-24T14:08:57;99590.97;;;7.98;100.00
19777;BME280;10047;42.490;26.012;2022-12-24T14:14:29;99574.22;;;7.92;100.00
19777;BME280;10047;42.490;26.012;2022-12-24T14:19:58;99578.34;;;7.96;100.00
19777;BME280;10047;42.490;26.012;2022-12-24T14:24:57;99575.13;;;7.89;100.00
19777;BME280;10047;42.490;26.012;2022-12-24T14:30:17;99583.50;;;7.92;100.00
19777;BME280;10047;42.490;26.012;2022-12-24T14:32:44;99588.81;;;7.81;100.00
19777;BME280;10047;42.490;26.012;2022-12-24T14:37:35;99482.16;;;7.29;100.00
19777;BME280;10047;42.490;26.012;2022-12-24T14:40:01;99589.75;;;7.77;100.00
19777;BME280;10047;42.490;26.012;2022-12-24T14:45:29;99508.41;;;7.22;100.00
19777;BME280;10047;42.490;26.012;2022-12-24T14:48:18;99593.22;;;7.73;100.00
19777;BME280;10047;42.490;26.012;2022-12-24T14:56:26;99461.06;;;6.91;100.00
19777;BME280;10047;42.490;26.012;2022-12-24T14:58:51;99585.91;;;7.62;100.00
19777;BME280;10047;42.490;26.012;2022-12-24T15:03:42;99534.44;;;7.25;100.00
19777;BME280;10047;42.490;26.012;2022-12-24T15:06:09;99568.47;;;7.49;100.00
19777;BME280;10047;42.490;26.012;2022-12-24T15:08:39;99607.03;;;7.60;100.00